Airfield :
LOGIN :

Register | Disclaimer

   EN    FR    IT 

 










Legend :    VFR   Marginal VFR   IFR   Intensive IFR   Very Intensive IFR
Visi :
Ceiling :
>= 8 km
>= 3000ft
5 to 8 km
1000 to 3000 ft
1500m to 5 km
500 to 1000 ft
800 to 1500m
200 to 500 ft
< 800m
< 200 ft
Symbols :   Thunderstorms  Fog  Heavy snow  Heavy precipitations  Wind > 20 kt
SIGMETs :     Misc.  Thunderstorms  Icing  Turbulence  Mountain Waves  Volcanic Ashes






- Airport Elevation : 13 ft
- IATA code : CEQ


LFMD - Cannes Mandelieu

CURRENT METAR :
  • 271800Z AUTO 29017G28KT 250V340 CAVOK 12/06 Q1006 NOSIG

EXPIRED METARs :
  • 271730Z AUTO 28016G28KT 250V320 CAVOK 11/06 Q1006 NOSIG
  • 271700Z AUTO 27014KT 240V350 CAVOK 11/06 Q1007 TEMPO 27022G35KT
  • 271630Z AUTO 26008KT 220V320 9999 SCT033 10/06 Q1008 TEMPO 27022G35KT
  • 271600Z AUTO 22008KT 190V250 9999 -DZ FEW020 OVC034 09/07 Q1008 BECMG 24015G25KT
  • 271530Z AUTO 23006KT 200V260 9999 -RA SCT020 OVC030 09/07 Q1009 BECMG 24015G25KT

TAF TAF LFMD
Valid from the 27 at 15:00 until the 28 at 15:00 UTC


271400Z 2715/2815 24015G25KT 9999 OVC035
TEMPO 2718/2723 27022G35KT
BECMG 2801/2803 VRB02KT
ATIS : +33 4 93 48 73 23



MET'MAP, your aeronautical weather chart ! - Copyright ORBIFLY December 2007 - Disclaimer

ORBIFLY MET'MAP TEAM :

Programming & Development : Alexandra Zaïnal
Concept & original design : Baudouin d'Aumeries
Assistance for programming : Marc-Olivier Méhu
Technical & hardware support : Manuel Goepfert

Contact : metmap@orbifly.com




SOURCES & CREDITS :

   NOAA